Time;durP1;ratioP1;P1;durP2;ratioP2;P2;SDS_P1;SDS_P2;PMS_P1;PMS_P2;Temp;Humidity;BMP_temperature;BMP_pressure;BME280_temperature;BME280_humidity;BME280_pressure;Samples;Min_cycle;Max_cycle;Signal;HPM_P1;HPM_P2
2022/05/13 00:00:50;;;;;;;3.75;1.10;;;;;;;;;;8300303;28;20362;-60
2022/05/13 00:04:50;;;;;;;4.28;1.05;;;;;;;;;;8299725;28;20024;-60
2022/05/13 00:08:51;;;;;;;2.83;1.10;;;;;;;;;;8299972;28;20147;-60
2022/05/13 00:12:51;;;;;;;4.97;1.38;;;;;;;;;;8303243;28;20517;-60
2022/05/13 00:16:51;;;;;;;3.78;1.20;;;;;;;;;;8299948;28;20124;-60
2022/05/13 00:20:52;;;;;;;5.47;1.10;;;;;;;;;;8298746;28;20033;-60
2022/05/13 00:24:53;;;;;;;3.20;1.00;;;;;;;;;;8301594;28;20025;-60
2022/05/13 00:28:53;;;;;;;2.90;0.95;;;;;;;;;;8299532;28;20029;-60
2022/05/13 00:32:53;;;;;;;2.53;1.17;;;;;;;;;;8300455;28;20044;-60
2022/05/13 00:36:54;;;;;;;3.60;1.10;;;;;;;;;;8298229;28;20051;-60
2022/05/13 00:40:54;;;;;;;4.80;1.30;;;;;;;;;;8297553;28;20399;-60
2022/05/13 00:44:55;;;;;;;3.97;1.30;;;;;;;;;;8299205;28;20543;-59
2022/05/13 00:48:56;;;;;;;4.57;1.30;;;;;;;;;;8301082;28;20678;-59
2022/05/13 00:52:57;;;;;;;3.13;1.10;;;;;;;;;;8299419;28;20032;-59
2022/05/13 00:56:58;;;;;;;6.05;1.23;;;;;;;;;;8306078;28;20128;-61
2022/05/13 01:00:58;;;;;;;1.77;1.00;;;;;;;;;;8305775;28;20430;-61
2022/05/13 01:04:59;;;;;;;2.83;1.20;;;;;;;;;;8304011;28;20031;-60
2022/05/13 01:09:00;;;;;;;3.00;1.00;;;;;;;;;;8305177;28;20020;-60
2022/05/13 01:13:05;;;;;;;3.00;1.10;;;;;;;;;;8305411;28;20019;-60
2022/05/13 01:21:38;;;;;;;4.05;1.00;;;;;;;;;;8306090;28;20052;-60
2022/05/13 01:25:42;;;;;;;3.07;1.07;;;;;;;;;;8305034;28;20346;-60
2022/05/13 01:29:42;;;;;;;4.00;1.10;;;;;;;;;;8306854;28;20613;-60
2022/05/13 01:33:42;;;;;;;3.42;1.15;;;;;;;;;;8303824;28;20474;-60
2022/05/13 01:37:43;;;;;;;1.42;0.85;;;;;;;;;;8305018;28;20029;-62
2022/05/13 01:41:43;;;;;;;3.50;1.20;;;;;;;;;;8306000;28;20025;-60
2022/05/13 01:45:44;;;;;;;3.47;1.02;;;;;;;;;;8304440;28;20263;-61
2022/05/13 01:49:44;;;;;;;2.17;1.08;;;;;;;;;;8302854;28;20103;-60
2022/05/13 01:53:44;;;;;;;4.00;1.05;;;;;;;;;;8305539;28;20549;-60
2022/05/13 01:57:45;;;;;;;3.03;1.20;;;;;;;;;;8303873;28;20033;-60
2022/05/13 02:01:45;;;;;;;3.08;0.90;;;;;;;;;;8303722;28;20568;-60
2022/05/13 02:05:45;;;;;;;2.40;1.10;;;;;;;;;;8306359;28;20141;-60
2022/05/13 02:09:45;;;;;;;3.30;1.27;;;;;;;;;;8302172;28;20124;-60
2022/05/13 02:13:45;;;;;;;3.58;1.10;;;;;;;;;;8303088;28;20036;-60
2022/05/13 02:17:46;;;;;;;4.70;1.40;;;;;;;;;;8303593;28;20412;-60
2022/05/13 02:21:46;;;;;;;2.83;1.20;;;;;;;;;;8305866;28;20061;-60
2022/05/13 02:25:46;;;;;;;4.00;1.30;;;;;;;;;;8307133;28;20104;-59
2022/05/13 02:29:46;;;;;;;5.82;1.27;;;;;;;;;;8311265;28;20063;-60
2022/05/13 02:33:47;;;;;;;4.65;1.30;;;;;;;;;;8308185;28;20061;-60
2022/05/13 02:37:47;;;;;;;6.47;1.60;;;;;;;;;;8308070;28;20488;-60
2022/05/13 02:41:47;;;;;;;3.33;1.45;;;;;;;;;;8308775;28;20032;-61
2022/05/13 02:45:47;;;;;;;4.70;1.40;;;;;;;;;;8305382;28;20120;-61
2022/05/13 02:50:17;;;;;;;6.10;1.40;;;;;;;;;;8319893;28;20349;-61
2022/05/13 02:54:08;;;;;;;2.22;1.10;;;;;;;;;;8309499;28;20924;-59
2022/05/13 02:58:08;;;;;;;3.83;1.15;;;;;;;;;;8309611;28;20094;-60
2022/05/13 03:02:08;;;;;;;5.13;1.60;;;;;;;;;;8310421;28;20036;-60
2022/05/13 03:06:09;;;;;;;5.53;1.45;;;;;;;;;;8309334;28;20107;-60
2022/05/13 03:10:11;;;;;;;5.78;1.50;;;;;;;;;;8308897;28;20128;-61
2022/05/13 03:14:11;;;;;;;5.68;1.45;;;;;;;;;;8309812;28;21118;-61
2022/05/13 03:18:12;;;;;;;4.55;1.70;;;;;;;;;;8309158;28;20621;-60
2022/05/13 03:22:12;;;;;;;6.20;1.70;;;;;;;;;;8306958;28;20017;-60
2022/05/13 03:26:13;;;;;;;3.08;1.30;;;;;;;;;;8308289;28;20022;-61
2022/05/13 03:30:15;;;;;;;4.70;1.25;;;;;;;;;;8308028;28;20333;-60
2022/05/13 03:34:16;;;;;;;6.07;1.60;;;;;;;;;;8308221;28;20130;-60
2022/05/13 03:38:16;;;;;;;4.05;1.25;;;;;;;;;;8308564;28;20029;-59
2022/05/13 03:42:16;;;;;;;4.53;1.35;;;;;;;;;;8308353;28;20943;-61
2022/05/13 03:46:16;;;;;;;4.03;1.40;;;;;;;;;;8308056;28;20581;-60
2022/05/13 03:50:17;;;;;;;4.53;1.20;;;;;;;;;;8308302;28;20743;-60
2022/05/13 03:54:17;;;;;;;1.80;1.00;;;;;;;;;;8308139;28;20021;-59
2022/05/13 03:58:17;;;;;;;3.00;1.20;;;;;;;;;;8308574;28;20029;-60
2022/05/13 04:02:17;;;;;;;2.75;1.05;;;;;;;;;;8307650;28;20274;-60
2022/05/13 04:10:36;;;;;;;2.53;1.40;;;;;;;;;;8306768;28;20079;-59
2022/05/13 04:18:55;;;;;;;6.72;1.20;;;;;;;;;;8309854;28;20080;-59
2022/05/13 04:22:56;;;;;;;3.10;1.10;;;;;;;;;;8307541;28;21309;-60
2022/05/13 04:26:56;;;;;;;2.60;1.08;;;;;;;;;;8303905;28;20252;-60
2022/05/13 04:30:58;;;;;;;2.83;1.20;;;;;;;;;;8302136;28;21404;-61
2022/05/13 04:34:58;;;;;;;2.28;1.20;;;;;;;;;;8306001;28;20091;-61
2022/05/13 04:38:58;;;;;;;2.35;1.20;;;;;;;;;;8308354;28;20247;-60
2022/05/13 04:43:00;;;;;;;1.80;1.03;;;;;;;;;;8306614;28;20033;-60
2022/05/13 04:47:01;;;;;;;3.35;1.52;;;;;;;;;;8304348;28;20644;-60
2022/05/13 04:51:01;;;;;;;4.40;1.60;;;;;;;;;;8304637;28;20013;-59
2022/05/13 04:55:02;;;;;;;6.40;1.58;;;;;;;;;;8302743;28;20148;-59
2022/05/13 04:59:03;;;;;;;5.40;1.25;;;;;;;;;;8306302;28;20048;-59
2022/05/13 05:03:03;;;;;;;7.95;1.48;;;;;;;;;;8301293;28;20059;-59
2022/05/13 05:07:04;;;;;;;4.53;1.47;;;;;;;;;;8303815;28;20025;-60
2022/05/13 05:11:05;;;;;;;3.67;1.20;;;;;;;;;;8305242;28;20432;-59
2022/05/13 05:15:05;;;;;;;4.43;1.42;;;;;;;;;;8305366;28;20389;-60
2022/05/13 05:19:06;;;;;;;3.63;1.20;;;;;;;;;;8302437;28;20025;-63
2022/05/13 05:23:07;;;;;;;3.90;1.25;;;;;;;;;;8305541;28;20028;-59
2022/05/13 05:27:09;;;;;;;2.47;1.00;;;;;;;;;;8302442;28;20029;-59
2022/05/13 05:31:13;;;;;;;2.72;1.30;;;;;;;;;;8305167;28;20033;-60
2022/05/13 05:35:16;;;;;;;3.45;1.20;;;;;;;;;;8303624;28;20086;-60
2022/05/13 05:39:17;;;;;;;4.10;1.20;;;;;;;;;;8300597;28;20040;-60
2022/05/13 05:43:17;;;;;;;2.88;1.20;;;;;;;;;;8304670;28;20398;-60
2022/05/13 05:47:21;;;;;;;5.18;1.50;;;;;;;;;;8307481;28;20123;-60
2022/05/13 05:51:21;;;;;;;4.88;1.20;;;;;;;;;;8305907;28;20029;-60
2022/05/13 05:59:45;;;;;;;6.80;1.63;;;;;;;;;;8303474;28;20036;-60
2022/05/13 06:03:45;;;;;;;3.55;1.30;;;;;;;;;;8308868;28;20437;-60
2022/05/13 06:07:46;;;;;;;4.00;1.30;;;;;;;;;;8311679;28;21045;-60
2022/05/13 06:11:46;;;;;;;7.55;1.70;;;;;;;;;;8309897;28;20070;-60
2022/05/13 06:15:46;;;;;;;5.07;1.90;;;;;;;;;;8310104;28;20299;-60
2022/05/13 06:19:46;;;;;;;5.60;1.63;;;;;;;;;;8312477;28;20315;-60
2022/05/13 06:23:47;;;;;;;4.88;1.67;;;;;;;;;;8310417;28;20083;-60
2022/05/13 06:27:48;;;;;;;4.68;1.60;;;;;;;;;;8312221;28;20026;-60
2022/05/13 06:31:48;;;;;;;3.22;1.58;;;;;;;;;;8312130;28;20063;-61
2022/05/13 06:35:48;;;;;;;4.13;1.48;;;;;;;;;;8311041;28;20478;-60
2022/05/13 06:39:49;;;;;;;4.28;1.50;;;;;;;;;;8312967;28;20029;-61
2022/05/13 06:43:49;;;;;;;5.35;1.45;;;;;;;;;;8309577;28;20026;-61
2022/05/13 06:47:49;;;;;;;4.80;1.58;;;;;;;;;;8311076;28;20067;-61
2022/05/13 06:51:49;;;;;;;6.47;1.90;;;;;;;;;;8310277;28;20044;-60
2022/05/13 06:55:50;;;;;;;4.10;1.45;;;;;;;;;;8309072;28;20029;-62
2022/05/13 06:59:50;;;;;;;7.13;1.50;;;;;;;;;;8308911;28;20910;-62
2022/05/13 07:03:50;;;;;;;5.20;1.70;;;;;;;;;;8309895;28;20327;-60
2022/05/13 07:07:50;;;;;;;3.83;1.30;;;;;;;;;;8310159;28;20028;-60
2022/05/13 07:11:51;;;;;;;3.70;1.33;;;;;;;;;;8310999;28;20060;-60
2022/05/13 07:15:51;;;;;;;3.72;1.42;;;;;;;;;;8310737;28;20072;-61
2022/05/13 07:19:51;;;;;;;4.63;1.42;;;;;;;;;;8308132;28;20021;-61
2022/05/13 07:23:51;;;;;;;3.00;1.30;;;;;;;;;;8310393;28;20441;-60
2022/05/13 07:27:53;;;;;;;4.07;1.33;;;;;;;;;;8309423;28;20061;-60
2022/05/13 07:31:53;;;;;;;7.38;1.60;;;;;;;;;;8310005;28;20081;-60
2022/05/13 07:35:53;;;;;;;4.05;1.45;;;;;;;;;;8307184;28;20414;-60
2022/05/13 07:44:12;;;;;;;4.43;1.42;;;;;;;;;;8306513;28;20639;-60
2022/05/13 07:48:12;;;;;;;7.40;1.50;;;;;;;;;;8308830;28;20041;-60
2022/05/13 07:52:12;;;;;;;3.47;1.27;;;;;;;;;;8305829;28;20367;-62
2022/05/13 07:56:13;;;;;;;5.50;1.50;;;;;;;;;;8308786;28;20560;-60
2022/05/13 08:00:26;;;;;;;3.58;1.40;;;;;;;;;;8307066;28;20029;-60
2022/05/13 08:04:26;;;;;;;3.45;1.55;;;;;;;;;;8308221;28;20017;-60
2022/05/13 08:08:29;;;;;;;3.75;1.40;;;;;;;;;;8307612;28;20099;-60
2022/05/13 08:12:29;;;;;;;4.22;1.48;;;;;;;;;;8305804;28;20091;-60
2022/05/13 08:16:29;;;;;;;4.30;1.60;;;;;;;;;;8306369;28;20103;-60
2022/05/13 08:20:31;;;;;;;6.40;1.50;;;;;;;;;;8305078;28;20032;-59
2022/05/13 08:24:31;;;;;;;6.47;1.60;;;;;;;;;;8309267;28;20026;-60
2022/05/13 08:28:31;;;;;;;4.67;1.30;;;;;;;;;;8306638;28;20033;-60
2022/05/13 08:32:32;;;;;;;8.38;1.30;;;;;;;;;;8307211;28;20046;-60
2022/05/13 08:36:33;;;;;;;3.00;1.40;;;;;;;;;;8305905;28;20345;-60
2022/05/13 08:40:49;;;;;;;4.68;1.40;;;;;;;;;;8308087;28;20040;-59
2022/05/13 08:44:51;;;;;;;3.85;1.50;;;;;;;;;;8307062;28;20078;-60
2022/05/13 08:48:57;;;;;;;3.80;1.33;;;;;;;;;;8303952;28;20037;-59
2022/05/13 08:53:06;;;;;;;6.00;1.58;;;;;;;;;;8305443;28;20442;-59
2022/05/13 08:57:09;;;;;;;5.40;1.35;;;;;;;;;;8299178;28;20028;-59
2022/05/13 09:01:13;;;;;;;3.28;1.15;;;;;;;;;;8297176;28;20156;-59
2022/05/13 09:05:14;;;;;;;5.05;1.30;;;;;;;;;;8301283;28;20060;-60
2022/05/13 09:09:14;;;;;;;2.90;1.25;;;;;;;;;;8299768;28;20371;-60
2022/05/13 09:13:18;;;;;;;5.13;1.33;;;;;;;;;;8298747;28;20021;-59
2022/05/13 09:17:36;;;;;;;4.85;1.35;;;;;;;;;;8294307;28;20548;-59
2022/05/13 09:21:41;;;;;;;3.10;1.23;;;;;;;;;;8295862;28;20558;-60
2022/05/13 09:26:01;;;;;;;4.57;1.27;;;;;;;;;;8297198;28;20026;-59
2022/05/13 09:30:01;;;;;;;4.30;1.20;;;;;;;;;;8293960;28;20102;-59
2022/05/13 09:34:01;;;;;;;3.25;1.33;;;;;;;;;;8265044;28;20041;-59
2022/05/13 09:38:12;;;;;;;3.20;1.20;;;;;;;;;;8269609;28;20021;-59
2022/05/13 09:42:19;;;;;;;5.15;1.33;;;;;;;;;;8270499;28;20029;-59
2022/05/13 09:46:36;;;;;;;4.38;0.98;;;;;;;;;;8271401;28;20494;-60
2022/05/13 09:50:38;;;;;;;3.10;1.05;;;;;;;;;;8268275;28;20026;-59
2022/05/13 09:54:42;;;;;;;2.08;0.95;;;;;;;;;;8271730;28;20319;-59
2022/05/13 09:58:50;;;;;;;3.15;1.13;;;;;;;;;;8270620;28;20137;-59
2022/05/13 10:03:05;;;;;;;4.90;0.95;;;;;;;;;;8267398;28;20043;-60
2022/05/13 10:07:06;;;;;;;2.03;0.80;;;;;;;;;;8268437;28;20018;-59
2022/05/13 10:15:31;;;;;;;2.75;1.10;;;;;;;;;;8271903;28;20211;-59
2022/05/13 10:19:41;;;;;;;3.85;0.95;;;;;;;;;;8272594;28;20113;-60
2022/05/13 10:24:01;;;;;;;3.08;1.00;;;;;;;;;;8273839;28;20287;-59
2022/05/13 10:28:04;;;;;;;1.27;0.90;;;;;;;;;;8273209;28;20041;-59
2022/05/13 10:32:25;;;;;;;3.20;0.90;;;;;;;;;;8270224;28;20030;-59
2022/05/13 10:36:28;;;;;;;3.65;0.90;;;;;;;;;;8271160;28;20037;-59
2022/05/13 10:40:33;;;;;;;3.55;1.08;;;;;;;;;;8271909;28;20025;-59
2022/05/13 10:44:40;;;;;;;3.75;1.00;;;;;;;;;;8271600;28;20546;-59
2022/05/13 10:48:48;;;;;;;3.38;0.90;;;;;;;;;;8272269;28;20377;-59
2022/05/13 10:52:54;;;;;;;1.38;0.80;;;;;;;;;;8270199;28;20033;-59
2022/05/13 10:57:09;;;;;;;2.67;1.00;;;;;;;;;;8271341;28;20160;-59
2022/05/13 11:01:29;;;;;;;2.45;1.02;;;;;;;;;;8272978;28;20048;-59
2022/05/13 11:05:52;;;;;;;2.33;0.90;;;;;;;;;;8270798;28;20021;-59
2022/05/13 11:09:52;;;;;;;;;;;;;;;;;;8271581;28;20566;-59
2022/05/13 11:14:04;;;;;;;2.65;0.80;;;;;;;;;;8271415;28;19919;-60
2022/05/13 11:18:19;;;;;;;2.60;0.90;;;;;;;;;;8265909;28;20551;-59
2022/05/13 11:22:28;;;;;;;3.58;1.00;;;;;;;;;;8269014;28;20649;-59
2022/05/13 11:26:32;;;;;;;1.48;0.90;;;;;;;;;;8267748;28;20053;-59
2022/05/13 11:30:33;;;;;;;2.00;0.95;;;;;;;;;;8263465;28;20315;-59
2022/05/13 11:34:52;;;;;;;1.40;0.90;;;;;;;;;;8267114;28;20013;-59
2022/05/13 11:39:04;;;;;;;1.38;0.80;;;;;;;;;;8267105;28;20379;-59
2022/05/13 11:43:19;;;;;;;2.35;1.00;;;;;;;;;;8265731;28;20022;-59
2022/05/13 11:47:25;;;;;;;2.58;0.90;;;;;;;;;;8267415;28;20045;-59
2022/05/13 11:51:28;;;;;;;4.72;0.90;;;;;;;;;;8266387;28;20037;-59
2022/05/13 11:55:45;;;;;;;3.05;0.95;;;;;;;;;;8267765;28;20127;-60
2022/05/13 11:59:47;;;;;;;2.65;1.10;;;;;;;;;;8264806;28;20608;-59
2022/05/13 12:04:07;;;;;;;1.37;0.80;;;;;;;;;;8266251;28;20383;-59
2022/05/13 12:08:10;;;;;;;4.72;1.00;;;;;;;;;;8265776;28;20021;-59
2022/05/13 12:12:13;;;;;;;3.95;0.80;;;;;;;;;;8267980;28;20610;-59
2022/05/13 12:16:26;;;;;;;1.95;0.90;;;;;;;;;;8263634;28;20320;-59
2022/05/13 12:20:48;;;;;;;2.10;0.98;;;;;;;;;;8266430;28;20429;-59
2022/05/13 12:25:03;;;;;;;3.15;1.00;;;;;;;;;;8266601;28;20631;-59
2022/05/13 12:29:14;;;;;;;2.33;0.93;;;;;;;;;;8265367;28;20137;-59
2022/05/13 12:33:17;;;;;;;2.28;0.80;;;;;;;;;;8263799;28;20088;-59
2022/05/13 12:37:35;;;;;;;2.33;0.90;;;;;;;;;;8265003;28;20512;-59
2022/05/13 12:41:45;;;;;;;2.42;0.80;;;;;;;;;;8266708;28;20053;-59
2022/05/13 12:45:59;;;;;;;1.73;0.80;;;;;;;;;;8264022;28;20538;-59
2022/05/13 12:50:18;;;;;;;5.07;0.90;;;;;;;;;;8264213;28;20087;-59
2022/05/13 12:54:20;;;;;;;3.35;1.10;;;;;;;;;;8264639;28;20061;-59
2022/05/13 12:58:20;;;;;;;2.53;0.80;;;;;;;;;;8264987;28;20582;-59
2022/05/13 13:02:22;;;;;;;1.98;0.88;;;;;;;;;;8264481;28;20306;-59
2022/05/13 13:06:25;;;;;;;2.35;0.82;;;;;;;;;;8264647;28;20025;-59
2022/05/13 13:10:27;;;;;;;2.15;0.90;;;;;;;;;;8262968;28;20042;-59
2022/05/13 13:14:42;;;;;;;1.83;0.80;;;;;;;;;;8265402;28;20029;-59
2022/05/13 13:18:43;;;;;;;2.95;0.90;;;;;;;;;;8263000;28;20073;-59
2022/05/13 13:22:50;;;;;;;1.52;0.80;;;;;;;;;;8261738;28;20474;-59
2022/05/13 13:26:51;;;;;;;2.22;0.80;;;;;;;;;;8265175;28;20144;-59
2022/05/13 13:30:55;;;;;;;3.38;0.80;;;;;;;;;;8271014;28;20042;-59
2022/05/13 13:34:57;;;;;;;4.03;1.02;;;;;;;;;;8270244;28;20497;-59
2022/05/13 13:38:58;;;;;;;3.33;0.80;;;;;;;;;;8271297;28;20514;-60
2022/05/13 13:43:25;;;;;;;1.63;0.70;;;;;;;;;;8270254;28;20030;-59
2022/05/13 13:47:25;;;;;;;3.28;0.98;;;;;;;;;;8268772;28;20494;-60
2022/05/13 13:51:27;;;;;;;4.18;0.80;;;;;;;;;;8268830;28;20254;-59
2022/05/13 13:55:35;;;;;;;4.00;0.93;;;;;;;;;;8271149;28;20121;-59
2022/05/13 13:59:52;;;;;;;1.95;0.82;;;;;;;;;;8269478;28;20030;-59
2022/05/13 14:04:04;;;;;;;1.23;0.60;;;;;;;;;;8269719;28;20033;-60
2022/05/13 14:08:05;;;;;;;2.33;0.75;;;;;;;;;;8264514;28;20338;-59
2022/05/13 14:12:11;;;;;;;1.17;0.73;;;;;;;;;;8262495;28;20621;-59
2022/05/13 14:16:13;;;;;;;2.00;0.70;;;;;;;;;;8261915;28;20042;-59
2022/05/13 14:20:15;;;;;;;1.48;0.75;;;;;;;;;;8261792;28;20025;-59
2022/05/13 14:24:28;;;;;;;2.47;0.77;;;;;;;;;;8268144;28;20403;-59
2022/05/13 14:28:30;;;;;;;3.22;0.63;;;;;;;;;;8269017;28;20026;-59
2022/05/13 14:32:31;;;;;;;3.50;0.88;;;;;;;;;;8269591;28;20046;-59
2022/05/13 14:36:36;;;;;;;2.15;0.85;;;;;;;;;;8267549;28;20052;-59
2022/05/13 14:40:42;;;;;;;3.05;0.98;;;;;;;;;;8268515;28;20520;-59
2022/05/13 14:44:50;;;;;;;1.40;0.88;;;;;;;;;;8267531;28;20060;-59
2022/05/13 14:48:51;;;;;;;6.22;0.90;;;;;;;;;;8268149;28;20115;-59
2022/05/13 14:52:54;;;;;;;2.53;0.90;;;;;;;;;;8267819;28;20061;-59
2022/05/13 14:56:59;;;;;;;1.88;0.88;;;;;;;;;;8269400;28;20294;-59
2022/05/13 15:01:08;;;;;;;3.78;0.90;;;;;;;;;;8264630;28;20475;-61
2022/05/13 15:05:09;;;;;;;1.73;0.80;;;;;;;;;;8267843;28;20029;-59
2022/05/13 15:09:20;;;;;;;4.63;0.82;;;;;;;;;;8265098;28;20152;-60
2022/05/13 15:13:24;;;;;;;3.22;0.85;;;;;;;;;;8268481;28;20148;-59
2022/05/13 15:17:26;;;;;;;1.50;0.93;;;;;;;;;;8266854;28;20099;-59
2022/05/13 15:21:27;;;;;;;3.47;1.00;;;;;;;;;;8264713;28;20375;-59
2022/05/13 15:25:27;;;;;;;2.10;0.98;;;;;;;;;;8267939;28;20665;-59
2022/05/13 15:29:30;;;;;;;6.10;0.93;;;;;;;;;;8269207;28;20401;-58
2022/05/13 15:33:30;;;;;;;2.10;0.88;;;;;;;;;;8265654;28;20034;-59
2022/05/13 15:37:32;;;;;;;1.02;0.60;;;;;;;;;;8267507;28;20398;-59
2022/05/13 15:41:32;;;;;;;2.40;0.82;;;;;;;;;;8267294;28;20091;-58
2022/05/13 15:45:33;;;;;;;3.35;0.98;;;;;;;;;;8265357;28;20571;-59
2022/05/13 15:53:52;;;;;;;2.58;1.00;;;;;;;;;;8267061;28;20515;-58
2022/05/13 15:58:13;;;;;;;1.42;0.80;;;;;;;;;;8265289;28;20030;-58
2022/05/13 16:02:13;;;;;;;2.47;0.90;;;;;;;;;;8265188;28;20160;-58
2022/05/13 16:06:13;;;;;;;2.35;0.77;;;;;;;;;;8265339;28;20581;-58
2022/05/13 16:10:15;;;;;;;0.80;0.65;;;;;;;;;;8264559;28;20030;-58
2022/05/13 16:14:16;;;;;;;4.85;1.20;;;;;;;;;;8266287;28;20052;-58
2022/05/13 16:18:20;;;;;;;4.88;0.93;;;;;;;;;;8263452;28;20489;-58
2022/05/13 16:22:20;;;;;;;3.75;0.90;;;;;;;;;;8265164;28;20030;-59
2022/05/13 16:26:21;;;;;;;0.70;0.70;;;;;;;;;;8266689;28;20029;-58
2022/05/13 16:30:21;;;;;;;2.20;0.88;;;;;;;;;;8262715;28;20037;-58
2022/05/13 16:34:22;;;;;;;0.90;0.77;;;;;;;;;;8265655;28;20036;-58
2022/05/13 16:38:22;;;;;;;4.90;1.00;;;;;;;;;;8265274;28;20481;-58
2022/05/13 16:42:22;;;;;;;4.32;0.70;;;;;;;;;;8264718;28;20037;-59
2022/05/13 16:46:22;;;;;;;1.67;0.80;;;;;;;;;;8264409;28;20045;-58
2022/05/13 16:50:24;;;;;;;1.88;0.75;;;;;;;;;;8263894;28;20025;-58
2022/05/13 16:54:24;;;;;;;2.22;0.70;;;;;;;;;;8265865;28;20152;-58
2022/05/13 16:58:24;;;;;;;3.30;0.90;;;;;;;;;;8263960;28;20069;-58
2022/05/13 17:02:24;;;;;;;0.82;0.60;;;;;;;;;;8264022;28;20049;-58
2022/05/13 17:06:24;;;;;;;3.33;0.70;;;;;;;;;;8264088;28;20025;-58
2022/05/13 17:19:18;;;;;;;5.32;0.90;;;;;;;;;;8301057;28;20468;-58
2022/05/13 17:23:19;;;;;;;0.85;0.70;;;;;;;;;;8296436;28;20813;-57
2022/05/13 17:27:40;;;;;;;2.58;0.70;;;;;;;;;;8298770;28;20555;-58
2022/05/13 17:31:40;;;;;;;1.90;0.70;;;;;;;;;;8297549;28;20069;-58
2022/05/13 17:35:40;;;;;;;4.55;0.90;;;;;;;;;;8296072;28;20548;-58
2022/05/13 17:39:41;;;;;;;5.20;0.98;;;;;;;;;;8296540;28;20488;-58
2022/05/13 17:43:41;;;;;;;3.55;0.80;;;;;;;;;;8295256;28;20029;-58
2022/05/13 17:47:42;;;;;;;1.73;0.90;;;;;;;;;;8291405;28;20041;-58
2022/05/13 17:51:43;;;;;;;2.80;0.95;;;;;;;;;;8276099;28;20041;-58
2022/05/13 17:55:43;;;;;;;2.75;1.10;;;;;;;;;;8279182;28;20029;-58
2022/05/13 17:59:43;;;;;;;4.13;0.80;;;;;;;;;;8283621;28;20036;-58
2022/05/13 18:03:43;;;;;;;3.58;1.30;;;;;;;;;;8302571;28;20418;-58
2022/05/13 18:07:44;;;;;;;4.05;1.40;;;;;;;;;;8301759;28;20296;-58
2022/05/13 18:11:46;;;;;;;1.65;0.98;;;;;;;;;;8304048;28;20079;-58
2022/05/13 18:15:47;;;;;;;1.83;1.00;;;;;;;;;;8301422;28;20036;-58
2022/05/13 18:19:47;;;;;;;2.45;0.95;;;;;;;;;;8307528;28;20140;-59
2022/05/13 18:23:51;;;;;;;2.67;0.90;;;;;;;;;;8312970;28;20037;-59
2022/05/13 18:27:51;;;;;;;4.32;0.75;;;;;;;;;;8311744;28;20399;-58
2022/05/13 18:31:51;;;;;;;5.28;0.98;;;;;;;;;;8309818;28;20034;-60
2022/05/13 18:35:52;;;;;;;2.60;0.80;;;;;;;;;;8310313;28;20102;-59
2022/05/13 18:48:43;;;;;;;2.13;1.20;;;;;;;;;;8308707;28;20118;-59
2022/05/13 18:52:43;;;;;;;3.05;1.13;;;;;;;;;;8308966;28;20026;-59
2022/05/13 18:56:44;;;;;;;3.53;1.08;;;;;;;;;;8311677;28;20795;-59
2022/05/13 19:00:44;;;;;;;2.23;1.00;;;;;;;;;;8311174;28;20110;-58
2022/05/13 19:04:46;;;;;;;2.60;0.90;;;;;;;;;;8309943;28;20447;-58
2022/05/13 19:08:46;;;;;;;1.42;0.90;;;;;;;;;;8309483;28;20174;-59
2022/05/13 19:12:46;;;;;;;6.20;0.90;;;;;;;;;;8308348;28;20053;-59
2022/05/13 19:16:47;;;;;;;3.22;0.82;;;;;;;;;;8308251;28;20029;-59
2022/05/13 19:20:48;;;;;;;1.67;0.90;;;;;;;;;;8308881;28;20032;-59
2022/05/13 19:24:48;;;;;;;3.53;0.90;;;;;;;;;;8308661;28;20025;-59
2022/05/13 19:28:48;;;;;;;2.03;0.88;;;;;;;;;;8308430;28;20040;-58
2022/05/13 19:32:48;;;;;;;4.33;0.90;;;;;;;;;;8307698;28;20046;-59
2022/05/13 19:36:48;;;;;;;1.48;0.70;;;;;;;;;;8308625;28;20033;-57
2022/05/13 19:40:49;;;;;;;1.83;0.82;;;;;;;;;;8305864;28;20032;-59
2022/05/13 19:44:50;;;;;;;6.03;0.90;;;;;;;;;;8308980;28;20023;-59
2022/05/13 19:48:50;;;;;;;2.38;0.80;;;;;;;;;;8306438;28;20311;-59
2022/05/13 19:52:50;;;;;;;2.33;0.85;;;;;;;;;;8308033;28;20025;-58
2022/05/13 19:56:51;;;;;;;6.82;1.08;;;;;;;;;;8306854;28;20112;-58
2022/05/13 20:00:54;;;;;;;3.45;1.10;;;;;;;;;;8307203;28;20037;-57
2022/05/13 20:13:33;;;;;;;2.38;1.00;;;;;;;;;;8306578;28;20074;-58
2022/05/13 20:17:33;;;;;;;2.47;1.15;;;;;;;;;;8308145;28;20153;-59
2022/05/13 20:25:52;;;;;;;3.72;0.93;;;;;;;;;;8307951;28;20237;-59
2022/05/13 20:29:53;;;;;;;1.87;0.80;;;;;;;;;;8307206;28;20628;-59
2022/05/13 20:33:53;;;;;;;2.67;0.70;;;;;;;;;;8306013;28;21182;-59
2022/05/13 20:37:54;;;;;;;7.15;1.08;;;;;;;;;;8307163;28;20884;-58
2022/05/13 20:41:55;;;;;;;2.70;0.82;;;;;;;;;;8306148;28;20032;-59
2022/05/13 20:45:56;;;;;;;1.92;0.80;;;;;;;;;;8305082;28;20037;-58
2022/05/13 20:49:56;;;;;;;1.80;0.80;;;;;;;;;;8305808;28;20232;-59
2022/05/13 20:54:01;;;;;;;2.28;0.75;;;;;;;;;;8306647;28;20029;-58
2022/05/13 20:58:02;;;;;;;3.90;1.00;;;;;;;;;;8305412;28;20933;-58
2022/05/13 21:02:04;;;;;;;1.35;0.85;;;;;;;;;;8306681;28;20041;-58
2022/05/13 21:06:04;;;;;;;2.95;0.80;;;;;;;;;;8306862;28;20060;-57
2022/05/13 21:10:06;;;;;;;2.28;0.80;;;;;;;;;;8309886;28;20017;-58
2022/05/13 21:14:06;;;;;;;5.65;0.80;;;;;;;;;;8307320;28;20024;-59
2022/05/13 21:18:06;;;;;;;4.78;1.00;;;;;;;;;;8307958;28;20490;-57
2022/05/13 21:22:07;;;;;;;1.90;0.82;;;;;;;;;;8304977;28;20021;-58
2022/05/13 21:26:09;;;;;;;4.60;1.30;;;;;;;;;;8308001;28;20966;-58
2022/05/13 21:30:11;;;;;;;3.75;1.10;;;;;;;;;;8305934;28;20081;-58
2022/05/13 21:38:31;;;;;;;1.08;0.75;;;;;;;;;;8307359;28;20036;-58
2022/05/13 21:42:32;;;;;;;1.98;1.00;;;;;;;;;;8308839;28;20021;-58
2022/05/13 21:46:37;;;;;;;4.30;1.10;;;;;;;;;;8305486;28;20048;-59
2022/05/13 21:50:37;;;;;;;2.70;1.00;;;;;;;;;;8306303;28;20624;-59
2022/05/13 21:54:41;;;;;;;2.63;1.00;;;;;;;;;;8306360;28;20657;-59
2022/05/13 21:58:41;;;;;;;;;;;;;;;;;;8306171;28;20030;-59
2022/05/13 22:02:41;;;;;;;4.53;0.88;;;;;;;;;;8306295;28;20344;-58
2022/05/13 22:06:41;;;;;;;3.33;0.90;;;;;;;;;;8306791;28;20025;-57
2022/05/13 22:10:42;;;;;;;1.90;0.98;;;;;;;;;;8306013;28;20931;-58
2022/05/13 22:14:42;;;;;;;2.93;0.90;;;;;;;;;;8307503;28;20025;-57
2022/05/13 22:18:42;;;;;;;3.35;0.90;;;;;;;;;;8305051;28;20292;-56
2022/05/13 22:22:42;;;;;;;2.30;0.90;;;;;;;;;;8304709;28;20025;-59
2022/05/13 22:26:43;;;;;;;1.40;0.90;;;;;;;;;;8305291;28;20800;-59
2022/05/13 22:30:44;;;;;;;6.72;0.80;;;;;;;;;;8305260;28;20762;-59
2022/05/13 22:34:44;;;;;;;3.65;1.00;;;;;;;;;;8306505;28;20022;-57
2022/05/13 22:38:45;;;;;;;4.70;1.00;;;;;;;;;;8307129;28;20025;-59
2022/05/13 22:42:45;;;;;;;1.50;0.88;;;;;;;;;;8305797;28;20029;-57
2022/05/13 22:46:46;;;;;;;2.60;1.10;;;;;;;;;;8312536;28;20036;-59
2022/05/13 22:50:47;;;;;;;2.05;1.00;;;;;;;;;;8311356;28;20287;-57
2022/05/13 22:54:47;;;;;;;1.73;0.80;;;;;;;;;;8313094;28;20025;-58
2022/05/13 22:58:47;;;;;;;3.55;0.70;;;;;;;;;;8310466;28;20028;-57
2022/05/13 23:02:47;;;;;;;2.03;0.80;;;;;;;;;;8311161;28;20033;-58
2022/05/13 23:11:15;;;;;;;3.45;0.80;;;;;;;;;;8309960;28;20461;-58
2022/05/13 23:15:15;;;;;;;4.60;0.93;;;;;;;;;;8310166;28;20114;-57
2022/05/13 23:19:16;;;;;;;3.35;1.15;;;;;;;;;;8310269;28;20058;-57
2022/05/13 23:23:16;;;;;;;1.67;1.00;;;;;;;;;;8311048;28;20032;-57
2022/05/13 23:27:16;;;;;;;3.38;0.85;;;;;;;;;;8312721;28;20290;-57
2022/05/13 23:31:16;;;;;;;5.10;0.90;;;;;;;;;;8309767;28;20042;-57
2022/05/13 23:35:17;;;;;;;3.83;0.90;;;;;;;;;;8309674;28;21010;-58
2022/05/13 23:39:17;;;;;;;2.80;0.90;;;;;;;;;;8310978;28;20187;-60
2022/05/13 23:43:17;;;;;;;1.95;0.73;;;;;;;;;;8311455;28;20276;-59
2022/05/13 23:47:18;;;;;;;5.40;1.00;;;;;;;;;;8309117;28;20059;-57
2022/05/13 23:51:18;;;;;;;3.58;1.20;;;;;;;;;;8309236;28;20033;-59
2022/05/13 23:59:37;;;;;;;2.38;0.95;;;;;;;;;;8308834;28;20431;-58
